createdAt,value
2022-09-18T00:01:31.264Z,70.80
2022-09-18T00:04:02.280Z,70.80
2022-09-18T00:06:36.592Z,70.80
2022-09-18T00:09:06.749Z,71.00
2022-09-18T00:11:41.709Z,71.00
2022-09-18T00:14:12.640Z,71.10
2022-09-18T00:16:40.305Z,71.20
2022-09-18T00:19:08.376Z,71.20
2022-09-18T00:21:37.318Z,71.40
2022-09-18T00:24:05.096Z,71.60
2022-09-18T00:26:33.391Z,71.90
2022-09-18T00:29:00.467Z,72.00
2022-09-18T00:31:31.282Z,72.20
2022-09-18T00:34:02.546Z,72.50
2022-09-18T00:36:30.197Z,72.50
2022-09-18T00:38:59.199Z,72.70
2022-09-18T00:41:32.274Z,72.90
2022-09-18T00:44:36.562Z,73.10
2022-09-18T00:47:09.781Z,73.80
2022-09-18T00:49:44.147Z,73.80
2022-09-18T00:52:14.291Z,73.40
2022-09-18T00:54:47.745Z,73.60
2022-09-18T00:57:24.600Z,74.10
2022-09-18T00:59:52.951Z,74.00
2022-09-18T01:02:20.139Z,74.00
2022-09-18T01:04:48.621Z,74.00
2022-09-18T01:07:38.969Z,74.10
2022-09-18T01:10:33.521Z,74.00
2022-09-18T01:13:19.911Z,74.30
2022-09-18T01:16:22.150Z,74.20
2022-09-18T01:18:58.565Z,74.30
2022-09-18T01:21:52.205Z,73.60
2022-09-18T01:24:56.500Z,73.80
2022-09-18T01:27:41.610Z,74.30
2022-09-18T01:30:11.496Z,73.70
2022-09-18T01:32:47.925Z,73.20
2022-09-18T01:35:40.661Z,73.60
2022-09-18T01:38:22.044Z,73.80
2022-09-18T01:41:01.257Z,73.40
2022-09-18T01:43:31.044Z,73.70
2022-09-18T01:46:04.324Z,73.60
2022-09-18T01:48:39.923Z,73.70
2022-09-18T01:51:21.398Z,73.80
2022-09-18T01:53:55.009Z,73.60
2022-09-18T01:56:31.950Z,73.60
2022-09-18T01:59:05.964Z,73.70
2022-09-18T02:01:44.684Z,73.60
2022-09-18T02:04:18.093Z,73.40
2022-09-18T02:07:24.051Z,73.50
2022-09-18T02:09:51.388Z,73.30
2022-09-18T02:12:23.457Z,73.30
2022-09-18T02:15:00.580Z,73.50
2022-09-18T02:17:51.282Z,73.60
2022-09-18T02:20:30.477Z,73.80
2022-09-18T02:23:03.550Z,73.80
2022-09-18T02:25:42.204Z,73.60
2022-09-18T02:28:11.083Z,73.90
2022-09-18T02:30:39.380Z,74.00
2022-09-18T02:33:32.839Z,74.10
2022-09-18T02:36:41.720Z,74.50
2022-09-18T02:39:44.973Z,74.70
2022-09-18T02:42:35.875Z,74.80
2022-09-18T02:45:30.640Z,74.90
2022-09-18T02:48:41.820Z,75.00
2022-09-18T02:51:29.686Z,74.90
2022-09-18T02:54:14.140Z,74.90
2022-09-18T02:56:45.530Z,74.80
2022-09-18T02:59:21.471Z,75.00
2022-09-18T03:01:55.634Z,75.00
2022-09-18T03:04:26.150Z,75.20
2022-09-18T03:07:04.595Z,75.20
2022-09-18T03:09:37.360Z,75.30
2022-09-18T03:12:04.358Z,75.40
2022-09-18T03:14:35.977Z,75.40
2022-09-18T03:17:03.737Z,75.10
2022-09-18T03:19:32.106Z,75.20
2022-09-18T03:22:00.242Z,75.10
2022-09-18T03:24:29.314Z,75.20
2022-09-18T03:26:57.537Z,75.30
2022-09-18T03:29:26.862Z,75.50
2022-09-18T03:31:55.648Z,75.40
2022-09-18T03:34:23.066Z,75.40
2022-09-18T03:36:51.095Z,75.40
2022-09-18T03:39:18.598Z,75.20
2022-09-18T03:41:46.876Z,75.20
2022-09-18T03:44:13.882Z,75.10
2022-09-18T03:46:42.548Z,75.10
2022-09-18T03:49:09.471Z,75.10
2022-09-18T03:51:39.314Z,75.10
2022-09-18T03:54:07.257Z,75.20
2022-09-18T03:56:52.861Z,75.10
2022-09-18T03:59:37.509Z,75.00
2022-09-18T04:02:30.494Z,74.90
2022-09-18T04:05:15.958Z,74.70
2022-09-18T04:08:12.357Z,75.00
2022-09-18T04:10:58.898Z,74.60
2022-09-18T04:13:25.840Z,74.50
2022-09-18T04:15:58.535Z,74.40
2022-09-18T04:18:25.564Z,74.30
2022-09-18T04:20:53.228Z,74.10
2022-09-18T04:23:20.646Z,74.00
2022-09-18T04:25:47.724Z,74.00
2022-09-18T04:28:14.642Z,73.90
2022-09-18T04:30:47.208Z,73.80
2022-09-18T04:33:16.009Z,74.50
2022-09-18T04:35:43.223Z,73.70
2022-09-18T04:38:11.149Z,73.60
2022-09-18T04:40:38.265Z,73.60
2022-09-18T04:43:05.522Z,73.60
2022-09-18T04:45:32.693Z,73.50
2022-09-18T04:47:59.964Z,73.40
2022-09-18T04:50:28.890Z,73.30
2022-09-18T04:53:15.700Z,73.00
2022-09-18T04:55:45.611Z,72.70
2022-09-18T04:58:17.238Z,72.60
2022-09-18T05:00:49.535Z,72.60
2022-09-18T05:03:19.312Z,73.40
2022-09-18T05:05:48.245Z,72.70
2022-09-18T05:08:16.864Z,72.50
2022-09-18T05:10:44.536Z,72.20
2022-09-18T05:13:11.903Z,72.20
2022-09-18T05:15:45.463Z,72.10
2022-09-18T05:18:12.879Z,72.00
2022-09-18T05:20:39.867Z,71.80
2022-09-18T05:23:08.372Z,71.80
2022-09-18T05:25:37.064Z,71.60
2022-09-18T05:28:05.001Z,71.60
2022-09-18T05:30:38.527Z,72.10
2022-09-18T05:33:07.397Z,71.30
2022-09-18T05:35:39.835Z,71.30
2022-09-18T05:38:07.440Z,71.20
2022-09-18T05:40:37.255Z,71.30
2022-09-18T05:43:05.869Z,71.30
2022-09-18T05:45:34.615Z,71.20
2022-09-18T05:48:07.541Z,71.40
2022-09-18T05:50:38.785Z,71.50
2022-09-18T05:53:13.094Z,71.40
2022-09-18T05:55:49.075Z,71.40
2022-09-18T05:58:18.439Z,71.10
2022-09-18T06:00:47.569Z,70.80
2022-09-18T06:03:23.054Z,70.70
2022-09-18T06:05:54.934Z,70.60
2022-09-18T06:08:23.414Z,70.60
2022-09-18T06:10:50.488Z,70.60
2022-09-18T06:13:18.744Z,70.50
2022-09-18T06:15:54.224Z,70.50
2022-09-18T06:18:31.929Z,70.40
2022-09-18T06:21:01.185Z,70.30
2022-09-18T06:23:29.819Z,70.00
2022-09-18T06:26:05.922Z,69.80
2022-09-18T06:28:34.851Z,69.80
2022-09-18T06:31:04.904Z,69.90
2022-09-18T06:33:49.029Z,69.70
2022-09-18T06:36:16.337Z,69.70
2022-09-18T06:38:59.498Z,69.40
2022-09-18T06:41:26.768Z,69.30
2022-09-18T06:43:54.917Z,69.20
2022-09-18T06:46:44.460Z,69.10
2022-09-18T06:49:23.415Z,69.00
2022-09-18T06:51:50.740Z,68.80
2022-09-18T06:54:18.122Z,69.50
2022-09-18T06:56:47.086Z,68.80
2022-09-18T06:59:15.723Z,68.40
2022-09-18T07:01:49.099Z,68.10
2022-09-18T07:04:21.541Z,67.90
2022-09-18T07:06:48.630Z,67.90
2022-09-18T07:09:15.583Z,67.70
2022-09-18T07:12:01.360Z,67.50
2022-09-18T07:14:44.122Z,67.10
2022-09-18T07:17:17.877Z,66.60
2022-09-18T07:19:47.991Z,66.50
2022-09-18T07:22:17.184Z,65.80
2022-09-18T07:24:47.102Z,65.60
2022-09-18T07:27:14.267Z,64.70
2022-09-18T07:29:42.490Z,64.50
2022-09-18T07:32:12.752Z,64.40
2022-09-18T07:34:39.783Z,63.80
2022-09-18T07:37:10.681Z,63.30
2022-09-18T07:39:38.363Z,62.60
2022-09-18T07:42:24.088Z,61.60
2022-09-18T07:44:53.873Z,60.60
2022-09-18T07:47:21.329Z,59.50
2022-09-18T07:49:48.510Z,58.80
2022-09-18T07:52:15.438Z,58.30
2022-09-18T07:54:45.936Z,58.10
2022-09-18T07:57:31.749Z,57.60
2022-09-18T08:00:13.175Z,57.30
2022-09-18T08:02:42.942Z,57.00
2022-09-18T08:05:16.143Z,56.40
2022-09-18T08:08:08.253Z,55.60
2022-09-18T08:10:58.295Z,55.10
2022-09-18T08:13:44.963Z,54.30
2022-09-18T08:16:28.498Z,53.60
2022-09-18T08:19:14.196Z,53.20
2022-09-18T08:21:45.218Z,51.40
2022-09-18T08:24:17.271Z,50.50
2022-09-18T08:26:45.877Z,49.90
2022-09-18T08:29:19.057Z,49.50
2022-09-18T08:31:56.588Z,49.60
2022-09-18T08:34:23.806Z,48.90
2022-09-18T08:36:50.728Z,48.30
2022-09-18T08:39:22.404Z,48.00
2022-09-18T08:42:39.825Z,47.80
2022-09-18T08:45:21.456Z,47.10
2022-09-18T08:47:57.696Z,47.60
2022-09-18T08:50:36.300Z,47.10
2022-09-18T08:53:26.614Z,46.90
2022-09-18T08:56:25.823Z,45.50
2022-09-18T09:00:10.918Z,45.00
2022-09-18T09:02:43.258Z,45.60
2022-09-18T09:05:22.380Z,46.30
2022-09-18T09:08:38.161Z,45.80
2022-09-18T09:11:31.217Z,45.00
2022-09-18T09:14:56.746Z,45.80
2022-09-18T09:18:17.753Z,44.50
2022-09-18T09:20:58.730Z,42.00
2022-09-18T09:23:58.113Z,42.40
2022-09-18T09:26:45.256Z,41.90
2022-09-18T09:32:55.417Z,41.00
2022-09-18T09:35:46.677Z,40.60
2022-09-18T09:38:53.907Z,40.70
2022-09-18T09:41:41.807Z,41.30
2022-09-18T09:44:34.080Z,41.40
2022-09-18T09:47:38.233Z,41.30
2022-09-18T09:50:36.749Z,41.10
2022-09-18T09:53:08.988Z,41.60
2022-09-18T09:55:58.073Z,42.30
2022-09-18T09:59:00.257Z,42.40
2022-09-18T10:01:46.181Z,43.20
2022-09-18T10:04:44.865Z,44.10
2022-09-18T10:07:21.416Z,42.40
2022-09-18T10:10:29.159Z,42.10
2022-09-18T10:13:04.640Z,41.50
2022-09-18T10:15:39.387Z,42.20
2022-09-18T10:18:34.341Z,42.90
2022-09-18T10:21:20.986Z,44.70
2022-09-18T10:24:30.012Z,43.90
2022-09-18T10:27:09.431Z,45.50
2022-09-18T10:29:36.408Z,46.30
2022-09-18T10:32:06.945Z,46.60
2022-09-18T10:34:47.501Z,46.90
2022-09-18T10:37:29.958Z,47.00
2022-09-18T10:40:39.666Z,45.20
2022-09-18T10:43:17.852Z,43.00
2022-09-18T10:46:09.597Z,41.60
2022-09-18T10:48:44.159Z,39.90
2022-09-18T10:51:18.140Z,37.90
2022-09-18T10:54:19.775Z,37.10
2022-09-18T10:57:31.277Z,37.10
2022-09-18T11:00:05.477Z,36.60
2022-09-18T11:02:53.242Z,38.80
2022-09-18T11:05:27.035Z,37.20
2022-09-18T11:07:57.772Z,36.00
2022-09-18T11:10:28.177Z,35.60
2022-09-18T11:12:58.193Z,35.60
2022-09-18T11:15:36.447Z,35.50
2022-09-18T11:18:06.855Z,34.60
2022-09-18T11:20:45.148Z,35.50
2022-09-18T11:23:28.973Z,36.90
2022-09-18T11:26:20.191Z,38.00
2022-09-18T11:29:24.911Z,37.90
2022-09-18T11:32:05.546Z,38.40
2022-09-18T11:34:39.135Z,38.10
2022-09-18T11:37:13.283Z,36.90
2022-09-18T11:39:45.895Z,34.80
2022-09-18T11:42:17.432Z,33.30
2022-09-18T11:44:48.059Z,31.60
2022-09-18T11:47:32.964Z,31.80
2022-09-18T11:50:22.201Z,32.60
2022-09-18T11:52:54.596Z,33.00
2022-09-18T11:55:38.831Z,34.10
2022-09-18T11:58:26.217Z,36.00
2022-09-18T12:01:31.733Z,37.50
2022-09-18T12:04:35.037Z,37.80
2022-09-18T12:07:38.533Z,38.30
2022-09-18T12:10:41.885Z,38.60
2022-09-18T12:13:57.900Z,38.80
2022-09-18T12:17:10.339Z,37.20
2022-09-18T12:19:40.297Z,35.40
2022-09-18T12:22:34.226Z,34.20
2022-09-18T12:25:15.562Z,32.50
2022-09-18T12:28:35.416Z,30.80
2022-09-18T12:31:39.641Z,29.70
2022-09-18T12:34:27.523Z,30.80
2022-09-18T12:37:42.470Z,31.00
2022-09-18T12:40:30.775Z,30.00
2022-09-18T12:43:39.051Z,30.00
2022-09-18T12:46:24.521Z,31.60
2022-09-18T12:49:05.480Z,32.80
2022-09-18T12:51:43.396Z,33.10
2022-09-18T12:54:38.288Z,33.20
2022-09-18T12:57:58.438Z,32.70
2022-09-18T13:00:27.492Z,32.00
2022-09-18T13:03:15.083Z,32.10
2022-09-18T13:05:49.882Z,31.20
2022-09-18T13:08:50.223Z,30.90
2022-09-18T13:11:32.354Z,29.70
2022-09-18T13:14:44.245Z,29.30
2022-09-18T13:17:18.699Z,28.20
2022-09-18T13:19:53.916Z,28.00
2022-09-18T13:22:22.699Z,28.00
2022-09-18T13:24:55.407Z,27.00
2022-09-18T13:27:24.773Z,26.20
2022-09-18T13:29:51.756Z,26.30
2022-09-18T13:32:21.551Z,26.20
2022-09-18T13:34:56.868Z,26.20
2022-09-18T13:37:27.145Z,26.60
2022-09-18T13:40:10.881Z,26.90
2022-09-18T13:42:43.041Z,27.30
2022-09-18T13:45:21.482Z,28.00
2022-09-18T13:48:05.964Z,28.30
2022-09-18T13:50:36.109Z,28.80
2022-09-18T13:53:04.964Z,29.00
2022-09-18T13:55:48.409Z,28.90
2022-09-18T13:58:36.405Z,28.00
2022-09-18T14:01:42.216Z,27.50
2022-09-18T14:04:39.688Z,27.00
2022-09-18T14:07:18.585Z,26.90
2022-09-18T14:10:04.601Z,27.00
2022-09-18T14:12:35.194Z,26.80
2022-09-18T14:15:21.102Z,27.00
2022-09-18T14:18:16.795Z,27.70
2022-09-18T14:20:52.887Z,27.60
2022-09-18T14:23:35.700Z,27.90
2022-09-18T14:26:25.661Z,28.50
2022-09-18T14:28:52.566Z,29.10
2022-09-18T14:31:31.994Z,29.60
2022-09-18T14:34:15.213Z,30.40
2022-09-18T14:37:01.581Z,31.00
2022-09-18T14:39:30.541Z,32.00
2022-09-18T14:42:06.807Z,32.50
2022-09-18T14:44:34.391Z,33.20
2022-09-18T14:47:05.163Z,33.80
2022-09-18T14:49:43.910Z,34.80
2022-09-18T14:52:24.950Z,36.00
2022-09-18T14:54:56.652Z,36.80
2022-09-18T14:57:33.007Z,37.40
2022-09-18T15:00:02.660Z,38.00
2022-09-18T15:02:34.320Z,39.40
2022-09-18T15:05:03.960Z,39.30
2022-09-18T15:07:30.979Z,39.90
2022-09-18T15:10:02.412Z,40.50
2022-09-18T15:12:31.505Z,41.30
2022-09-18T15:14:59.219Z,41.50
2022-09-18T15:17:32.293Z,42.00
2022-09-18T15:20:16.065Z,42.80
2022-09-18T15:22:43.334Z,43.50
2022-09-18T15:25:15.405Z,44.50
2022-09-18T15:27:45.368Z,45.10
2022-09-18T15:30:24.040Z,45.40
2022-09-18T15:33:04.460Z,45.50
2022-09-18T15:35:37.880Z,45.10
2022-09-18T15:38:17.781Z,44.30
2022-09-18T15:40:46.528Z,43.50
2022-09-18T15:43:33.823Z,42.90
2022-09-18T15:46:07.836Z,41.40
2022-09-18T15:48:45.098Z,40.80
2022-09-18T15:51:19.951Z,39.90
2022-09-18T15:54:14.817Z,39.30
2022-09-18T15:57:01.399Z,38.20
2022-09-18T15:59:33.680Z,38.10
2022-09-18T16:02:08.005Z,38.00
2022-09-18T16:04:35.942Z,38.00
2022-09-18T16:07:27.077Z,38.30
2022-09-18T16:09:54.926Z,38.80
2022-09-18T16:12:30.485Z,38.80
2022-09-18T16:15:21.122Z,39.10
2022-09-18T16:17:49.434Z,39.80
2022-09-18T16:20:34.253Z,39.80
2022-09-18T16:23:35.524Z,40.40
2022-09-18T16:26:07.825Z,41.00
2022-09-18T16:28:49.274Z,41.30
2022-09-18T16:31:20.959Z,42.00
2022-09-18T16:33:57.696Z,42.30
2022-09-18T16:36:38.781Z,43.00
2022-09-18T16:39:18.639Z,43.80
2022-09-18T16:41:48.136Z,44.30
2022-09-18T16:44:16.944Z,44.60
2022-09-18T16:47:09.690Z,45.40
2022-09-18T16:49:45.929Z,46.50
2022-09-18T16:52:13.815Z,46.70
2022-09-18T16:54:40.823Z,47.20
2022-09-18T16:57:19.755Z,48.00
2022-09-18T16:59:47.515Z,48.00
2022-09-18T17:02:18.335Z,49.50
2022-09-18T17:04:45.625Z,50.60
2022-09-18T17:07:12.427Z,51.50
2022-09-18T17:09:39.539Z,53.60
2022-09-18T17:12:07.219Z,54.30
2022-09-18T17:14:34.920Z,57.20
2022-09-18T17:17:02.173Z,58.10
2022-09-18T17:19:29.082Z,59.50
2022-09-18T17:21:56.538Z,60.80
2022-09-18T17:24:26.065Z,62.30
2022-09-18T17:26:55.156Z,64.60
2022-09-18T17:29:22.391Z,65.00
2022-09-18T17:31:49.753Z,67.30
2022-09-18T17:34:18.744Z,69.30
2022-09-18T17:36:46.124Z,69.70
2022-09-18T17:39:13.260Z,69.60
2022-09-18T17:41:42.534Z,71.20
2022-09-18T17:44:10.072Z,71.80
2022-09-18T17:46:36.979Z,72.20
2022-09-18T17:49:04.880Z,72.40
2022-09-18T17:51:34.930Z,72.80
2022-09-18T17:54:04.802Z,73.70
2022-09-18T17:56:33.029Z,74.20
2022-09-18T17:59:07.317Z,74.80
2022-09-18T18:01:37.955Z,75.20
2022-09-18T18:04:06.948Z,76.10
2022-09-18T18:06:35.312Z,76.80
2022-09-18T18:09:02.350Z,77.30
2022-09-18T18:11:29.578Z,78.00
2022-09-18T18:13:56.423Z,79.00
2022-09-18T18:16:30.614Z,78.90
2022-09-18T18:19:01.692Z,79.70
2022-09-18T18:21:31.182Z,79.60
2022-09-18T18:24:01.589Z,79.70
2022-09-18T18:26:29.592Z,79.60
2022-09-18T18:28:57.500Z,80.30
2022-09-18T18:31:25.730Z,80.20
2022-09-18T18:33:55.265Z,81.00
2022-09-18T18:36:29.646Z,81.70
2022-09-18T18:39:00.012Z,82.80
2022-09-18T18:41:29.710Z,83.50
2022-09-18T18:44:05.475Z,84.20
2022-09-18T18:46:36.024Z,85.00
2022-09-18T18:49:09.427Z,85.30
2022-09-18T18:51:47.487Z,85.70
2022-09-18T18:54:19.357Z,86.60
2022-09-18T18:56:48.996Z,87.20
2022-09-18T18:59:19.300Z,87.90
2022-09-18T19:01:47.235Z,87.90
2022-09-18T19:04:19.015Z,88.60
2022-09-18T19:06:48.886Z,89.00
2022-09-18T19:09:22.772Z,89.50
2022-09-18T19:12:16.941Z,90.10
2022-09-18T19:14:50.201Z,90.30
2022-09-18T19:17:17.333Z,90.50
2022-09-18T19:19:44.478Z,90.80
2022-09-18T19:22:17.544Z,91.00
2022-09-18T19:24:45.718Z,91.10
2022-09-18T19:27:12.803Z,91.10
2022-09-18T19:29:40.010Z,91.10
2022-09-18T19:32:08.948Z,91.30
2022-09-18T19:34:37.244Z,91.40
2022-09-18T19:37:11.004Z,91.60
2022-09-18T19:39:38.792Z,91.70
2022-09-18T19:42:14.721Z,91.80
2022-09-18T19:44:52.876Z,92.10
2022-09-18T19:47:45.895Z,92.10
2022-09-18T19:50:23.681Z,92.50
2022-09-18T19:52:51.533Z,92.50
2022-09-18T19:55:20.752Z,92.40
2022-09-18T19:57:49.176Z,92.30
2022-09-18T20:00:16.152Z,92.50
2022-09-18T20:02:43.281Z,92.50
2022-09-18T20:05:10.710Z,92.60
2022-09-18T20:07:38.439Z,92.50
2022-09-18T20:10:12.328Z,92.70
2022-09-18T20:12:42.174Z,92.80
2022-09-18T20:15:11.932Z,92.70
2022-09-18T20:17:39.642Z,92.40
2022-09-18T20:20:09.673Z,92.60
2022-09-18T20:22:39.817Z,92.70
2022-09-18T20:25:08.681Z,92.90
2022-09-18T20:27:41.889Z,92.90
2022-09-18T20:30:12.475Z,93.20
2022-09-18T20:32:39.652Z,93.10
2022-09-18T20:35:07.127Z,93.00
2022-09-18T20:37:34.189Z,93.00
2022-09-18T20:40:02.463Z,93.10
2022-09-18T20:42:34.816Z,93.10
2022-09-18T20:45:02.545Z,93.20
2022-09-18T20:47:37.373Z,93.20
2022-09-18T20:50:12.454Z,93.00
2022-09-18T20:52:43.165Z,93.20
2022-09-18T20:55:17.792Z,93.20
2022-09-18T20:57:46.376Z,93.30
2022-09-18T21:03:08.638Z,93.80
2022-09-18T21:05:35.767Z,93.70
2022-09-18T21:08:04.077Z,93.70
2022-09-18T21:10:31.571Z,93.80
2022-09-18T21:12:58.770Z,93.70
2022-09-18T21:15:25.817Z,93.90
2022-09-18T21:17:52.697Z,94.00
2022-09-18T21:20:20.515Z,94.10
2022-09-18T21:23:07.203Z,94.30
2022-09-18T21:25:35.112Z,94.40
2022-09-18T21:28:05.860Z,94.30
2022-09-18T21:30:32.914Z,94.30
2022-09-18T21:33:00.137Z,94.50
2022-09-18T21:35:27.192Z,94.40
2022-09-18T21:37:54.493Z,94.50
2022-09-18T21:40:21.498Z,94.50
2022-09-18T21:42:48.549Z,94.50
2022-09-18T21:45:19.721Z,94.60
2022-09-18T21:47:50.836Z,94.60
2022-09-18T21:50:17.880Z,95.10
2022-09-18T21:52:46.139Z,94.80
2022-09-18T21:55:12.970Z,94.90
2022-09-18T21:57:39.899Z,95.00
2022-09-18T22:00:09.721Z,94.90
2022-09-18T22:02:41.289Z,95.10
2022-09-18T22:05:12.154Z,95.00
2022-09-18T22:07:39.509Z,94.90
2022-09-18T22:10:07.310Z,95.00
2022-09-18T22:12:36.442Z,95.10
2022-09-18T22:15:03.499Z,95.10
2022-09-18T22:17:31.877Z,95.30
2022-09-18T22:19:58.847Z,95.50
2022-09-18T22:22:27.092Z,95.40
2022-09-18T22:24:54.131Z,95.50
2022-09-18T22:27:20.943Z,95.60
2022-09-18T22:29:47.971Z,95.70
2022-09-18T22:32:15.091Z,95.80
2022-09-18T22:34:41.905Z,95.60
2022-09-18T22:37:11.137Z,95.70
2022-09-18T22:39:38.256Z,95.70
2022-09-18T22:42:05.742Z,95.80
2022-09-18T22:44:32.646Z,95.80
2022-09-18T22:46:59.979Z,95.90
2022-09-18T22:49:27.236Z,95.90
2022-09-18T22:51:54.742Z,96.00
2022-09-18T22:54:28.274Z,96.10
2022-09-18T22:56:56.819Z,96.10
2022-09-18T22:59:26.491Z,96.20
2022-09-18T23:02:01.580Z,96.10
2022-09-18T23:04:31.533Z,96.20
2022-09-18T23:06:59.436Z,96.10
2022-09-18T23:09:27.295Z,96.10
2022-09-18T23:11:54.703Z,96.10
2022-09-18T23:14:28.492Z,96.20
2022-09-18T23:16:56.998Z,96.00
2022-09-18T23:19:31.977Z,96.10
2022-09-18T23:21:59.835Z,96.20
2022-09-18T23:24:27.494Z,96.30
2022-09-18T23:26:57.870Z,96.30
2022-09-18T23:29:26.715Z,96.30
2022-09-18T23:31:57.098Z,96.30
2022-09-18T23:34:29.225Z,96.30
2022-09-18T23:36:58.411Z,96.40
2022-09-18T23:39:35.789Z,96.50
2022-09-18T23:42:05.493Z,96.40
2022-09-18T23:44:33.197Z,96.40
2022-09-18T23:47:25.034Z,96.30
2022-09-18T23:49:51.913Z,96.20
2022-09-18T23:52:18.832Z,96.10
2022-09-18T23:54:46.080Z,96.00
2022-09-18T23:57:13.648Z,96.00
2022-09-18T23:59:40.436Z,96.00
